Time;durP1;ratioP1;P1;durP2;ratioP2;P2;SDS_P1;SDS_P2;PMS_P1;PMS_P2;Temp;Humidity;BMP_temperature;BMP_pressure;BME280_temperature;BME280_humidity;BME280_pressure;Samples;Min_cycle;Max_cycle;Signal;HPM_P1;HPM_P2
2023/06/12 00:04:09;;;;;;;3.45;2.20;;;;;;;20.62;57.33;101883.69;20776002;28;20054;-62
2023/06/12 00:14:31;;;;;;;4.80;2.20;;;;;;;20.43;57.70;101877.75;20750465;28;20557;-63
2023/06/12 00:24:52;;;;;;;3.28;2.13;;;;;;;20.29;57.83;101888.16;20761611;28;20049;-63
2023/06/12 00:35:18;;;;;;;10.20;2.30;;;;;;;20.09;58.65;101888.31;20769829;28;20543;-63
2023/06/12 00:45:40;;;;;;;8.05;2.42;;;;;;;19.69;59.98;101886.06;20771625;28;20052;-63
2023/06/12 00:56:01;;;;;;;5.30;2.45;;;;;;;19.55;60.80;101880.66;20781924;28;20112;-63
2023/06/12 01:06:50;;;;;;;7.57;2.83;;;;;;;19.37;61.88;101877.19;20772937;28;20546;-63
2023/06/12 01:17:11;;;;;;;7.63;2.90;;;;;;;19.30;61.93;101872.28;20775574;28;20054;-63
2023/06/12 01:28:17;;;;;;;8.30;2.72;;;;;;;19.19;63.17;101869.34;20771540;28;20041;-63
2023/06/12 01:38:41;;;;;;;8.55;2.95;;;;;;;18.82;64.07;101862.38;20783229;28;20041;-63
2023/06/12 01:49:04;;;;;;;9.32;2.92;;;;;;;18.73;63.33;101862.81;20769398;28;20056;-62
2023/06/12 01:59:26;;;;;;;7.78;3.17;;;;;;;18.56;63.95;101854.88;20803171;28;20233;-63
2023/06/12 02:09:47;;;;;;;7.28;2.95;;;;;;;18.38;65.33;101866.19;20780960;28;20251;-62
2023/06/12 02:20:10;;;;;;;7.28;3.13;;;;;;;18.28;66.55;101855.25;20778769;28;21795;-61
2023/06/12 02:30:32;;;;;;;5.55;3.22;;;;;;;18.06;68.10;101847.53;20782416;28;20041;-62
2023/06/12 02:40:53;;;;;;;27.23;4.45;;;;;;;18.02;67.10;101847.72;20764863;28;20038;-61
2023/06/12 02:51:15;;;;;;;7.20;3.40;;;;;;;17.98;66.72;101859.25;20770717;28;20512;-61
2023/06/12 03:01:43;;;;;;;6.57;3.35;;;;;;;17.97;67.41;101861.03;20758976;28;20041;-62
2023/06/12 03:12:05;;;;;;;4.38;3.10;;;;;;;17.97;67.81;101854.94;20785116;28;20084;-61
2023/06/12 03:22:27;;;;;;;5.90;3.20;;;;;;;17.84;68.91;101870.34;20753448;28;20045;-61
2023/06/12 03:32:48;;;;;;;8.60;3.80;;;;;;;17.81;68.00;101869.63;20764008;28;20049;-62
2023/06/12 03:43:10;;;;;;;8.00;3.70;;;;;;;17.79;68.38;101860.97;20758154;28;20053;-61
2023/06/12 03:53:32;;;;;;;10.73;3.97;;;;;;;17.80;67.99;101862.69;20761315;28;20058;-61
2023/06/12 04:03:53;;;;;;;6.25;3.50;;;;;;;17.83;69.07;101862.53;20754331;28;20400;-62
2023/06/12 04:14:15;;;;;;;9.80;3.78;;;;;;;17.83;68.61;101868.66;20765237;28;20076;-62
2023/06/12 04:24:38;;;;;;;8.20;3.80;;;;;;;17.92;69.40;101867.38;20785401;28;20049;-62
2023/06/12 04:35:00;;;;;;;6.68;3.65;;;;;;;17.91;69.30;101860.44;20771433;28;20122;-62
2023/06/12 04:45:24;;;;;;;7.28;3.58;;;;;;;18.05;69.69;101858.06;20779107;28;20037;-62
2023/06/12 04:55:50;;;;;;;6.70;3.70;;;;;;;18.11;68.80;101857.81;20763899;28;20052;-62
2023/06/12 05:06:11;;;;;;;12.10;4.18;;;;;;;18.16;68.54;101850.59;20791691;28;20136;-62
2023/06/12 05:16:33;;;;;;;8.10;3.45;;;;;;;18.24;68.22;101869.41;20763680;28;20086;-62
2023/06/12 05:26:55;;;;;;;10.02;4.05;;;;;;;18.41;67.13;101872.16;20771725;28;20049;-62
2023/06/12 05:37:16;;;;;;;9.18;4.28;;;;;;;18.57;67.21;101882.81;20769911;28;20057;-62
2023/06/12 05:47:38;;;;;;;9.75;4.53;;;;;;;18.80;66.93;101870.31;20770541;28;20066;-62
2023/06/12 05:58:00;;;;;;;11.88;4.50;;;;;;;19.02;67.72;101871.00;20775209;28;20037;-62
2023/06/12 06:08:25;;;;;;;15.48;5.15;;;;;;;19.17;65.94;101861.53;20766375;28;20041;-61
2023/06/12 06:18:46;;;;;;;11.98;5.28;;;;;;;19.33;66.45;101874.78;20783058;28;20568;-62
2023/06/12 06:29:08;;;;;;;7.47;4.22;;;;;;;19.61;66.47;101881.19;20765540;28;20076;-61
2023/06/12 06:39:35;;;;;;;9.13;4.93;;;;;;;19.88;67.42;101881.56;20764897;28;20107;-63
2023/06/12 06:49:58;;;;;;;9.80;5.15;;;;;;;20.32;65.71;101889.78;20768390;28;20069;-61
2023/06/12 07:00:21;;;;;;;7.22;5.25;;;;;;;20.64;64.57;101892.38;20751776;28;20045;-61
2023/06/12 07:10:43;;;;;;;15.07;5.68;;;;;;;20.96;64.92;101894.09;20775089;28;20066;-61
2023/06/12 07:21:05;;;;;;;13.52;5.45;;;;;;;21.40;62.89;101867.00;20757100;28;20046;-61
2023/06/12 07:31:26;;;;;;;11.68;5.53;;;;;;;21.60;61.89;101874.59;20773254;28;20088;-61
2023/06/12 07:41:48;;;;;;;9.95;4.70;;;;;;;21.87;62.01;101875.63;20745625;28;20545;-61
2023/06/12 07:52:10;;;;;;;15.95;7.20;;;;;;;22.14;60.89;101876.56;20779700;28;20578;-61
2023/06/12 08:02:33;;;;;;;10.57;5.65;;;;;;;22.29;60.85;101873.00;20765696;28;20041;-62
2023/06/12 08:12:55;;;;;;;19.83;6.13;;;;;;;22.61;61.21;101861.31;20781646;28;20049;-62
2023/06/12 08:23:16;;;;;;;8.02;6.05;;;;;;;22.85;60.10;101867.66;20774455;28;20128;-62
2023/06/12 08:33:38;;;;;;;12.45;5.45;;;;;;;23.21;60.41;101866.19;20777206;28;20052;-61
2023/06/12 08:44:00;;;;;;;9.02;5.18;;;;;;;23.50;59.89;101862.50;20765654;28;20049;-62
2023/06/12 08:54:22;;;;;;;12.10;5.40;;;;;;;23.85;58.73;101863.59;20796912;28;20067;-62
2023/06/12 09:04:55;;;;;;;12.68;5.65;;;;;;;24.10;58.54;101855.69;20768035;28;20050;-62
2023/06/12 09:15:18;;;;;;;10.35;5.75;;;;;;;24.54;58.07;101856.03;20765667;28;20053;-62
2023/06/12 09:25:41;;;;;;;12.63;5.85;;;;;;;24.86;56.92;101841.34;20760948;28;20385;-62
2023/06/12 09:36:18;;;;;;;7.28;5.10;;;;;;;25.28;54.41;101839.94;20769549;28;20076;-62
2023/06/12 09:46:41;;;;;;;9.57;5.57;;;;;;;25.62;54.23;101843.59;20770619;28;20046;-62
2023/06/12 09:57:06;;;;;;;10.02;5.38;;;;;;;25.83;53.43;101836.59;20764589;28;20107;-62
2023/06/12 10:07:32;;;;;;;6.95;5.00;;;;;;;26.28;53.30;101827.69;20776555;28;20525;-62
2023/06/12 10:17:54;;;;;;;10.70;5.47;;;;;;;26.76;51.18;101823.78;20769020;28;20132;-62
2023/06/12 10:28:17;;;;;;;8.15;5.10;;;;;;;27.16;49.46;101809.88;20765369;28;20050;-62
2023/06/12 10:38:47;;;;;;;11.18;5.25;;;;;;;27.29;48.13;101799.88;20750848;28;20053;-63
2023/06/12 10:49:12;;;;;;;6.32;5.07;;;;;;;27.52;50.06;101807.63;20792152;28;20069;-62
2023/06/12 10:59:34;;;;;;;6.78;4.70;;;;;;;28.03;49.52;101796.97;20799506;28;20410;-62
2023/06/12 11:09:56;;;;;;;8.35;5.20;;;;;;;28.46;47.42;101792.19;20760545;28;20045;-62
2023/06/12 11:20:20;;;;;;;8.38;4.72;;;;;;;28.77;46.37;101800.13;20757195;28;20048;-62
2023/06/12 11:30:47;;;;;;;7.68;4.30;;;;;;;29.06;45.17;101792.97;20743438;28;20076;-62
2023/06/12 11:41:29;;;;;;;7.70;4.53;;;;;;;28.92;47.20;101788.06;20769538;28;20049;-63
2023/06/12 11:51:52;;;;;;;7.25;4.93;;;;;;;29.06;45.29;101779.63;20767322;28;20754;-63
2023/06/12 12:02:13;;;;;;;10.07;4.80;;;;;;;29.30;40.13;101780.88;20759671;28;20538;-63
2023/06/12 12:12:49;;;;;;;4.68;4.15;;;;;;;28.95;41.28;101769.13;20766503;28;20469;-63
2023/06/12 12:23:12;;;;;;;6.13;4.50;;;;;;;28.58;42.96;101758.31;20759260;28;20814;-62
2023/06/12 12:33:35;;;;;;;6.53;4.45;;;;;;;28.36;45.32;101759.38;20760838;28;20488;-63
2023/06/12 12:43:56;;;;;;;9.23;4.45;;;;;;;28.29;42.23;101755.59;20773696;28;20077;-62
2023/06/12 12:54:18;;;;;;;9.00;4.38;;;;;;;28.44;43.89;101746.19;20775524;28;20131;-62
2023/06/12 13:04:40;;;;;;;7.68;4.10;;;;;;;28.28;43.37;101743.22;20774695;28;20049;-62
2023/06/12 13:15:02;;;;;;;12.02;4.20;;;;;;;28.21;44.67;101750.09;20742919;28;20448;-62
2023/06/12 13:25:24;;;;;;;11.00;4.20;;;;;;;28.19;43.81;101728.06;20787368;28;20515;-62
2023/06/12 13:35:47;;;;;;;6.82;4.00;;;;;;;28.43;41.87;101725.88;20795237;28;20509;-62
2023/06/12 13:46:08;;;;;;;13.27;4.00;;;;;;;28.10;43.09;101726.22;20766930;28;20057;-62
2023/06/12 13:56:32;;;;;;;6.70;3.67;;;;;;;27.90;43.62;101727.13;20760849;28;20062;-64
2023/06/12 14:06:55;;;;;;;7.35;3.97;;;;;;;27.98;42.89;101730.00;20785332;28;20092;-62
2023/06/12 14:17:17;;;;;;;5.40;3.47;;;;;;;28.14;40.95;101714.34;20781245;28;20045;-61
2023/06/12 14:27:38;;;;;;;7.22;3.50;;;;;;;28.12;41.43;101704.78;20787494;28;20049;-62
2023/06/12 14:38:00;;;;;;;4.85;2.80;;;;;;;28.11;42.28;101703.94;20792078;28;20142;-61
2023/06/12 14:48:22;;;;;;;4.68;3.03;;;;;;;27.93;41.34;101710.09;20776406;28;20046;-63
2023/06/12 14:58:44;;;;;;;8.02;3.08;;;;;;;28.04;40.66;101699.34;20772888;28;20046;-64
2023/06/12 15:09:07;;;;;;;5.78;2.95;;;;;;;27.98;40.95;101700.72;20811174;28;20054;-62
2023/06/12 15:19:29;;;;;;;5.35;3.30;;;;;;;28.02;41.66;101683.47;20780062;28;20045;-63
2023/06/12 15:29:50;;;;;;;6.40;3.17;;;;;;;28.00;40.04;101688.09;20790817;28;20052;-62
2023/06/12 15:40:12;;;;;;;6.88;2.80;;;;;;;28.02;40.81;101698.63;20776295;28;20476;-63
2023/06/12 15:50:34;;;;;;;8.70;2.90;;;;;;;27.95;39.15;101692.13;20767970;28;20049;-62
2023/06/12 16:00:56;;;;;;;8.32;2.80;;;;;;;28.22;37.58;101701.16;20787088;28;20117;-62
2023/06/12 16:11:17;;;;;;;8.02;2.97;;;;;;;28.43;37.22;101685.91;20778797;28;20038;-62
2023/06/12 16:21:39;;;;;;;4.18;2.40;;;;;;;29.11;37.16;101684.03;20783194;28;20033;-62
2023/06/12 16:32:01;;;;;;;7.50;2.92;;;;;;;29.62;39.10;101684.44;20795593;28;20060;-62
2023/06/12 16:42:22;;;;;;;7.97;2.33;;;;;;;29.54;35.98;101687.84;20789180;28;20046;-62
2023/06/12 16:52:44;;;;;;;4.82;2.60;;;;;;;29.66;36.73;101675.16;20782469;28;20073;-62
2023/06/12 17:03:06;;;;;;;3.40;2.42;;;;;;;29.58;35.28;101685.72;20767528;28;20133;-63
2023/06/12 17:13:28;;;;;;;5.45;2.53;;;;;;;29.42;35.80;101672.16;20772149;28;20033;-63
2023/06/12 17:23:49;;;;;;;5.20;2.47;;;;;;;29.28;37.79;101697.47;20782306;28;20049;-63
2023/06/12 17:34:11;;;;;;;7.00;2.65;;;;;;;28.95;37.07;101681.97;20780341;28;20111;-63
2023/06/12 17:44:33;;;;;;;3.75;2.50;;;;;;;28.72;37.66;101678.78;20772602;28;20084;-63
2023/06/12 17:54:55;;;;;;;5.47;2.33;;;;;;;28.64;36.53;101678.63;20764149;28;20049;-62
2023/06/12 18:05:17;;;;;;;3.55;2.67;;;;;;;28.33;34.59;101671.72;20776579;28;20060;-63
2023/06/12 18:15:39;;;;;;;7.60;3.00;;;;;;;28.20;37.18;101679.16;20790785;28;20064;-63
2023/06/12 18:26:01;;;;;;;4.60;2.83;;;;;;;27.85;38.66;101673.47;20776308;28;20048;-62
2023/06/12 18:36:23;;;;;;;5.95;2.33;;;;;;;27.63;39.98;101671.84;20762291;28;20511;-62
2023/06/12 18:46:45;;;;;;;8.48;3.08;;;;;;;27.38;39.04;101679.44;20761167;28;20045;-62
2023/06/12 18:57:06;;;;;;;6.57;2.78;;;;;;;27.10;39.66;101672.16;20787072;28;20049;-62
2023/06/12 19:07:30;;;;;;;6.45;2.78;;;;;;;26.87;41.51;101682.06;20769544;28;20107;-62
2023/06/12 19:17:54;;;;;;;5.18;2.60;;;;;;;26.54;40.54;101690.16;20761603;28;20045;-62
2023/06/12 19:28:16;;;;;;;6.40;3.08;;;;;;;26.23;40.12;101689.19;20779801;28;20052;-62
2023/06/12 19:38:38;;;;;;;5.43;3.17;;;;;;;25.94;40.79;101701.31;20784428;28;20056;-63
2023/06/12 19:49:00;;;;;;;8.32;3.10;;;;;;;25.72;41.12;101706.63;20796942;28;20570;-61
2023/06/12 19:59:21;;;;;;;5.95;3.15;;;;;;;25.42;41.92;101711.69;20764132;28;20143;-60
2023/06/12 20:09:43;;;;;;;3.92;2.90;;;;;;;25.20;41.14;101720.41;20771139;28;20055;-62
2023/06/12 20:20:06;;;;;;;4.90;2.75;;;;;;;24.92;41.58;101715.53;20748131;28;20042;-62
2023/06/12 20:30:28;;;;;;;4.43;2.95;;;;;;;24.75;42.41;101724.75;20768482;28;20129;-62
2023/06/12 20:40:50;;;;;;;6.32;3.80;;;;;;;24.59;41.23;101726.84;20757209;28;20056;-62
2023/06/12 20:51:11;;;;;;;9.60;4.05;;;;;;;24.31;40.32;101742.19;20758500;28;20054;-62
2023/06/12 21:01:34;;;;;;;9.40;4.50;;;;;;;24.14;41.06;101755.78;20780062;28;20057;-62
2023/06/12 21:11:56;;;;;;;7.95;4.70;;;;;;;23.82;41.80;101763.34;20794770;28;20127;-62
2023/06/12 21:22:38;;;;;;;6.35;3.95;;;;;;;23.50;40.53;101760.28;20771910;28;20138;-62
2023/06/12 21:33:00;;;;;;;4.90;3.50;;;;;;;23.27;42.60;101758.34;20796296;28;20484;-62
2023/06/12 21:43:22;;;;;;;7.97;3.47;;;;;;;23.09;43.63;101766.66;20760326;28;20053;-61
2023/06/12 21:53:43;;;;;;;5.75;3.28;;;;;;;22.79;44.08;101766.88;20777412;28;20041;-61
2023/06/12 22:04:05;;;;;;;6.40;2.83;;;;;;;22.69;45.30;101779.00;20789414;28;20626;-61
2023/06/12 22:14:27;;;;;;;3.83;3.05;;;;;;;22.56;45.82;101773.66;20779979;28;20057;-61
2023/06/12 22:24:49;;;;;;;10.50;2.83;;;;;;;22.42;45.24;101773.69;20764990;28;20037;-62
2023/06/12 22:35:12;;;;;;;7.00;2.70;;;;;;;22.33;44.90;101782.19;20767434;28;20041;-62
2023/06/12 22:45:34;;;;;;;7.25;2.90;;;;;;;22.12;45.37;101794.09;20772025;28;20530;-61
2023/06/12 22:55:58;;;;;;;3.80;2.60;;;;;;;21.98;44.95;101792.31;20769734;28;20048;-62
2023/06/12 23:06:20;;;;;;;6.05;2.97;;;;;;;21.86;45.35;101792.22;20790947;28;20046;-62
2023/06/12 23:16:43;;;;;;;8.90;2.78;;;;;;;21.79;45.41;101790.91;20769778;28;20107;-62
2023/06/12 23:27:05;;;;;;;5.15;3.20;;;;;;;21.62;45.04;101788.41;20764516;28;20132;-62
2023/06/12 23:37:27;;;;;;;6.13;3.20;;;;;;;21.51;45.85;101793.47;20768272;28;20041;-62
2023/06/12 23:47:48;;;;;;;4.95;3.22;;;;;;;21.31;45.65;101788.53;20772000;28;20049;-62
2023/06/12 23:58:10;;;;;;;7.28;3.45;;;;;;;21.17;45.38;101796.41;20769861;28;20073;-62
